Time;durP1;ratioP1;P1;durP2;ratioP2;P2;SDS_P1;SDS_P2;PMS_P1;PMS_P2;Temp;Humidity;BMP_temperature;BMP_pressure;BME280_temperature;BME280_humidity;BME280_pressure;Samples;Min_cycle;Max_cycle;Signal;HPM_P1;HPM_P2
2022/12/08 00:01:32;;;;;;;24.67;14.77;;;;;;;4.31;83.77;101063.03;5105285;28;20093;-88
2022/12/08 00:04:00;;;;;;;21.08;13.90;;;;;;;4.26;84.06;101051.75;5071097;28;20614;-88
2022/12/08 00:09:36;;;;;;;19.38;13.48;;;;;;;4.24;83.48;101042.16;5108424;28;20309;-89
2022/12/08 00:12:05;;;;;;;20.13;13.02;;;;;;;4.24;83.87;101040.44;5079335;28;20019;-88
2022/12/08 00:14:36;;;;;;;24.35;14.15;;;;;;;4.25;83.84;101039.53;5101086;28;20394;-88
2022/12/08 00:17:02;;;;;;;23.30;14.02;;;;;;;4.24;84.17;101032.59;5089142;28;20490;-88
2022/12/08 00:19:28;;;;;;;22.55;13.00;;;;;;;4.18;84.00;101013.47;5111516;28;20094;-88
2022/12/08 00:21:54;;;;;;;21.33;13.77;;;;;;;4.28;84.09;101034.25;5083338;28;20493;-88
2022/12/08 00:24:21;;;;;;;25.48;14.60;;;;;;;4.27;84.15;101018.59;5087668;28;20024;-88
2022/12/08 00:26:47;;;;;;;25.85;14.18;;;;;;;4.33;84.01;101028.97;5079024;28;20027;-88
2022/12/08 00:29:13;;;;;;;24.63;13.68;;;;;;;4.27;84.07;101010.72;5083349;28;20383;-88
2022/12/08 00:31:38;;;;;;;22.05;14.07;;;;;;;4.27;84.08;101000.25;5085256;28;20302;-89
2022/12/08 00:34:05;;;;;;;21.20;14.38;;;;;;;4.40;84.16;101020.19;5075584;28;20062;-88
2022/12/08 00:36:31;;;;;;;25.13;13.65;;;;;;;4.37;83.77;101012.34;5098379;28;20034;-88
2022/12/08 00:38:56;;;;;;;23.75;14.57;;;;;;;4.38;84.01;101011.47;5091965;28;20394;-89
2022/12/08 00:44:09;;;;;;;23.77;15.23;;;;;;;4.42;84.07;101000.06;5102741;28;20031;-88
2022/12/08 00:46:34;;;;;;;25.38;15.77;;;;;;;4.44;84.01;100998.31;5086463;28;20115;-88
2022/12/08 00:49:00;;;;;;;24.35;15.52;;;;;;;4.46;84.10;101001.78;5085541;28;20550;-88
2022/12/08 00:51:25;;;;;;;25.02;16.00;;;;;;;4.43;84.04;100996.59;5075680;28;20123;-88
2022/12/08 00:53:50;;;;;;;24.80;15.15;;;;;;;4.45;83.62;100988.72;5084091;28;20016;-89
2022/12/08 00:56:16;;;;;;;25.33;15.77;;;;;;;4.48;83.94;100988.69;5083113;28;20110;-88
2022/12/08 00:58:41;;;;;;;26.42;16.15;;;;;;;4.40;84.34;100987.91;5092350;28;20394;-88
2022/12/08 01:01:10;;;;;;;25.67;16.77;;;;;;;4.39;84.20;100976.56;5102034;28;20028;-88
2022/12/08 01:03:36;;;;;;;26.65;17.08;;;;;;;4.42;84.09;100979.13;5093747;28;20020;-88
2022/12/08 01:06:02;;;;;;;27.05;16.15;;;;;;;4.40;84.28;100982.66;5090722;28;20114;-88
2022/12/08 01:08:28;;;;;;;30.08;17.33;;;;;;;4.41;84.08;100976.53;5103655;28;20031;-88
2022/12/08 01:10:53;;;;;;;28.17;17.38;;;;;;;4.41;84.21;100969.56;5079843;28;20046;-88
2022/12/08 01:13:18;;;;;;;28.10;17.60;;;;;;;4.41;84.10;100966.06;5081206;28;20475;-88
2022/12/08 01:15:43;;;;;;;26.05;16.25;;;;;;;4.45;84.03;100970.38;5106790;28;20115;-89
2022/12/08 01:18:09;;;;;;;26.33;16.35;;;;;;;4.46;83.83;100974.72;5080683;28;20069;-88
2022/12/08 01:20:34;;;;;;;24.95;13.85;;;;;;;4.53;84.11;100979.03;5079956;28;20134;-87
2022/12/08 01:22:59;;;;;;;25.52;17.00;;;;;;;4.49;83.97;100974.69;5080172;28;20073;-88
2022/12/08 01:25:25;;;;;;;27.17;17.58;;;;;;;4.44;83.84;100964.28;5087171;28;20035;-88
2022/12/08 01:27:51;;;;;;;27.58;16.17;;;;;;;4.45;84.00;100962.53;5085587;28;20028;-88
2022/12/08 01:30:16;;;;;;;25.27;16.23;;;;;;;4.49;83.86;100967.72;5105681;28;20471;-88
2022/12/08 01:32:42;;;;;;;25.55;15.98;;;;;;;4.55;84.06;100977.22;5098040;28;20039;-88
2022/12/08 01:35:07;;;;;;;28.40;15.52;;;;;;;4.51;83.62;100967.69;5083704;28;20016;-88
2022/12/08 01:37:33;;;;;;;22.85;14.35;;;;;;;4.49;83.84;100969.47;5098585;28;20036;-88
2022/12/08 01:39:58;;;;;;;22.83;13.90;;;;;;;4.53;83.86;100976.41;5096350;28;20023;-88
2022/12/08 01:42:24;;;;;;;22.75;14.30;;;;;;;4.51;84.00;100967.69;5098777;28;20027;-88
2022/12/08 01:44:57;;;;;;;21.48;14.00;;;;;;;4.56;84.30;100981.56;5106857;28;20023;-87
2022/12/08 01:47:26;;;;;;;22.65;13.55;;;;;;;4.57;83.94;100981.56;5078767;28;20036;-87
2022/12/08 01:49:52;;;;;;;20.45;13.02;;;;;;;4.53;84.00;100966.78;5079554;28;20097;-87
2022/12/08 01:52:34;;;;;;;21.40;12.35;;;;;;;4.53;83.77;100953.69;5086271;28;20028;-88
2022/12/08 01:55:10;;;;;;;;;;;;;;;4.70;83.15;100968.28;5077233;28;20471;-87
2022/12/08 01:57:59;;;;;;;20.27;12.75;;;;;;;4.63;83.54;100961.44;5078790;28;19912;-87
2022/12/08 02:00:24;;;;;;;17.02;11.52;;;;;;;4.54;83.56;100951.94;5092612;28;20122;-88
2022/12/08 02:03:06;;;;;;;20.67;12.43;;;;;;;4.61;84.09;100953.56;5079949;28;20492;-87
2022/12/08 02:05:35;;;;;;;20.88;12.90;;;;;;;4.49;84.09;100944.16;5093144;28;20031;-87
2022/12/08 02:08:05;;;;;;;18.30;11.63;;;;;;;4.50;84.04;100950.25;5097740;28;20059;-87
2022/12/08 02:10:33;;;;;;;18.73;12.35;;;;;;;4.55;84.16;100956.28;5106489;28;20031;-87
2022/12/08 02:12:59;;;;;;;17.25;11.68;;;;;;;4.50;84.22;100945.88;5106133;28;20482;-87
2022/12/08 02:15:54;;;;;;;18.20;11.48;;;;;;;4.57;84.03;100951.91;5084587;28;20028;-87
2022/12/08 02:18:38;;;;;;;18.05;11.60;;;;;;;4.56;84.18;100944.91;5043567;28;20410;-87
2022/12/08 02:21:03;;;;;;;15.52;10.10;;;;;;;4.58;83.96;100945.78;5094930;28;20505;-87
2022/12/08 02:24:08;;;;;;;21.23;11.03;;;;;;;4.56;84.17;100939.69;5101590;28;20027;-87
2022/12/08 02:27:11;;;;;;;17.27;10.57;;;;;;;4.57;84.06;100942.31;5082193;28;20290;-88
2022/12/08 02:30:02;;;;;;;;;;;;;;;4.64;83.51;100929.13;5076967;28;20035;-87
2022/12/08 02:33:01;;;;;;;15.00;10.68;;;;;;;4.58;83.92;100927.44;5097627;28;19916;-87
2022/12/08 02:35:52;;;;;;;17.63;9.95;;;;;;;4.56;83.80;100919.59;5104350;28;20023;-88
2022/12/08 02:38:33;;;;;;;15.38;9.57;;;;;;;4.52;84.06;100919.66;5075317;28;20016;-88
2022/12/08 02:41:36;;;;;;;14.43;9.10;;;;;;;4.51;84.03;100915.31;5074691;28;20498;-87
2022/12/08 02:44:15;;;;;;;12.05;8.68;;;;;;;4.40;84.04;100891.91;5085856;28;20030;-87
2022/12/08 02:46:55;;;;;;;15.32;9.30;;;;;;;4.43;84.00;100891.00;5074164;28;20028;-87
2022/12/08 02:49:27;;;;;;;14.48;8.90;;;;;;;4.45;84.42;100899.72;5103023;28;20069;-87
2022/12/08 02:52:06;;;;;;;13.30;8.23;;;;;;;4.44;84.34;100890.13;5101238;28;20089;-88
2022/12/08 02:54:32;;;;;;;11.55;7.35;;;;;;;4.42;84.36;100877.03;5081002;28;20485;-87
2022/12/08 02:57:03;;;;;;;11.65;7.32;;;;;;;4.52;84.06;100890.88;5105874;28;20022;-87
2022/12/08 02:59:39;;;;;;;10.35;7.28;;;;;;;4.47;84.48;100893.56;5085697;28;20034;-87
2022/12/08 03:02:13;;;;;;;14.18;7.63;;;;;;;4.50;84.56;100887.41;5106875;28;20019;-87
2022/12/08 03:05:12;;;;;;;13.50;7.07;;;;;;;4.48;84.25;100871.75;5080856;28;20436;-87
2022/12/08 03:07:46;;;;;;;12.45;6.85;;;;;;;4.54;84.26;100873.41;5071864;28;20031;-87
2022/12/08 03:10:18;;;;;;;10.98;6.40;;;;;;;4.50;84.40;100883.03;5094367;28;20028;-87
2022/12/08 03:13:01;;;;;;;11.02;6.63;;;;;;;4.49;84.26;100865.63;5101054;28;20120;-87
2022/12/08 03:15:30;;;;;;;12.35;6.63;;;;;;;4.46;84.17;100860.41;5071259;28;20024;-87
2022/12/08 03:17:57;;;;;;;10.52;6.43;;;;;;;4.55;84.53;100875.97;5074022;28;20492;-88
2022/12/08 03:20:26;;;;;;;11.88;7.65;;;;;;;4.48;84.09;100879.59;5097042;28;20038;-87
2022/12/08 03:22:54;;;;;;;11.13;7.20;;;;;;;4.46;84.21;100870.88;5096590;28;20026;-87
2022/12/08 03:25:21;;;;;;;10.50;6.93;;;;;;;4.54;84.70;100874.25;5087972;28;20035;-87
2022/12/08 03:27:47;;;;;;;11.90;7.15;;;;;;;4.51;84.22;100865.56;5098032;28;20468;-88
2022/12/08 03:30:13;;;;;;;11.63;7.28;;;;;;;4.50;84.31;100856.88;5098826;28;20011;-87
2022/12/08 03:32:51;;;;;;;11.48;6.93;;;;;;;4.64;84.21;100867.13;5089944;28;20554;-87
2022/12/08 03:35:23;;;;;;;11.98;6.43;;;;;;;4.58;84.02;100851.53;5084381;28;20036;-87
2022/12/08 03:37:49;;;;;;;12.15;7.60;;;;;;;4.55;84.17;100848.94;5086974;28;20047;-87
2022/12/08 03:40:18;;;;;;;12.38;7.88;;;;;;;4.63;84.52;100864.53;5081913;28;20062;-86
2022/12/08 03:42:43;;;;;;;14.90;7.47;;;;;;;4.61;84.57;100860.16;5078278;28;20483;-87
2022/12/08 03:45:10;;;;;;;14.27;8.15;;;;;;;4.56;84.68;100843.66;5077115;28;20031;-87
2022/12/08 03:47:36;;;;;;;11.38;8.20;;;;;;;4.61;84.63;100844.47;5075211;28;20031;-86
2022/12/08 03:50:01;;;;;;;17.23;8.20;;;;;;;4.51;84.61;100827.19;5088751;28;20130;-87
2022/12/08 03:52:26;;;;;;;14.57;9.20;;;;;;;4.59;84.65;100840.16;5103393;28;20103;-87
2022/12/08 03:54:52;;;;;;;15.85;8.93;;;;;;;4.50;84.47;100825.44;5087539;28;20042;-87
2022/12/08 03:57:17;;;;;;;16.48;10.00;;;;;;;4.52;84.62;100828.94;5083248;28;20365;-87
2022/12/08 03:59:42;;;;;;;19.50;11.80;;;;;;;4.50;84.88;100822.84;5097981;28;20035;-87
2022/12/08 04:02:08;;;;;;;22.27;13.13;;;;;;;4.51;84.91;100816.69;5096819;28;20059;-88
2022/12/08 04:04:33;;;;;;;23.23;12.98;;;;;;;4.51;84.95;100821.94;5098334;28;20032;-87
2022/12/08 04:06:58;;;;;;;24.75;14.15;;;;;;;4.43;85.20;100804.63;5076933;28;20507;-87
2022/12/08 04:09:24;;;;;;;23.17;13.85;;;;;;;4.58;85.09;100822.72;5075997;28;20024;-88
2022/12/08 04:11:49;;;;;;;31.83;15.27;;;;;;;4.58;85.02;100813.13;5077661;28;20028;-87
2022/12/08 04:14:14;;;;;;;29.35;15.38;;;;;;;4.56;85.04;100812.25;5080914;28;20042;-87
2022/12/08 04:16:40;;;;;;;29.88;15.95;;;;;;;4.54;84.87;100803.56;5095990;28;20085;-87
2022/12/08 04:19:05;;;;;;;30.70;16.08;;;;;;;4.64;84.73;100816.53;5107987;28;20470;-87
2022/12/08 04:21:31;;;;;;;30.67;17.15;;;;;;;4.59;85.05;100814.84;5081364;28;20020;-87
2022/12/08 04:23:56;;;;;;;30.10;16.13;;;;;;;4.65;84.59;100813.00;5080421;28;20069;-88
2022/12/08 04:26:21;;;;;;;27.15;15.10;;;;;;;4.70;84.60;100809.41;5084564;28;20024;-88
2022/12/08 04:28:46;;;;;;;39.28;18.45;;;;;;;4.59;84.97;100798.25;5098980;28;20030;-88
2022/12/08 04:31:12;;;;;;;32.15;16.73;;;;;;;4.60;85.14;100800.84;5094467;28;20089;-87
2022/12/08 04:33:37;;;;;;;34.67;17.27;;;;;;;4.66;84.87;100812.97;5079905;28;20024;-87
2022/12/08 04:36:04;;;;;;;34.85;17.13;;;;;;;4.64;85.23;100800.81;5105805;27;20368;-87
2022/12/08 04:38:29;;;;;;;33.90;19.17;;;;;;;4.47;85.34;100770.50;5108494;28;20036;-87
2022/12/08 04:40:54;;;;;;;30.55;18.10;;;;;;;4.61;84.83;100804.31;5095531;28;20069;-87
2022/12/08 04:43:20;;;;;;;32.03;16.98;;;;;;;4.56;85.13;100787.84;5079921;28;20107;-87
2022/12/08 04:45:45;;;;;;;28.02;14.98;;;;;;;4.59;85.06;100799.13;5086435;28;20051;-88
2022/12/08 04:48:14;;;;;;;28.40;14.52;;;;;;;4.59;84.76;100799.13;5097044;28;20487;-88
2022/12/08 04:50:40;;;;;;;25.77;13.85;;;;;;;4.57;84.67;100800.06;5092221;28;20067;-87
2022/12/08 04:53:07;;;;;;;28.35;14.13;;;;;;;4.66;84.86;100792.03;5102428;28;20024;-87
2022/12/08 04:55:33;;;;;;;24.38;12.77;;;;;;;4.55;84.70;100770.41;5094549;28;20122;-86
2022/12/08 04:57:58;;;;;;;24.35;13.90;;;;;;;4.54;84.77;100780.00;5101103;28;20027;-87
2022/12/08 05:00:24;;;;;;;24.88;14.05;;;;;;;4.55;84.77;100775.63;5109928;28;20027;-87
2022/12/08 05:02:49;;;;;;;23.45;13.10;;;;;;;4.59;84.35;100783.41;5099665;28;20020;-87
2022/12/08 05:05:14;;;;;;;20.75;11.30;;;;;;;4.60;84.39;100789.50;5102121;28;20363;-87
2022/12/08 05:07:39;;;;;;;22.10;11.50;;;;;;;4.57;84.74;100790.44;5077091;28;20035;-86
2022/12/08 05:10:06;;;;;;;22.67;12.05;;;;;;;4.59;84.48;100786.03;5095404;28;20027;-87
2022/12/08 05:12:31;;;;;;;19.13;11.15;;;;;;;4.57;84.50;100784.34;5106101;28;20039;-87
2022/12/08 05:14:56;;;;;;;20.02;10.27;;;;;;;4.55;84.31;100792.22;5084317;28;20024;-87
2022/12/08 05:17:21;;;;;;;17.00;9.27;;;;;;;4.64;84.09;100808.66;5082822;28;20464;-86
2022/12/08 05:19:47;;;;;;;14.98;8.55;;;;;;;4.61;84.32;100802.56;5084458;28;20039;-86
2022/12/08 05:22:12;;;;;;;14.25;6.15;;;;;;;4.55;83.98;100802.69;5077467;28;20018;-86
2022/12/08 05:24:37;;;;;;;5.72;4.05;;;;;;;4.49;83.51;100792.31;5096175;28;20382;-86
2022/12/08 05:27:03;;;;;;;7.60;3.80;;;;;;;4.49;83.77;100804.53;5091965;28;20019;-85
2022/12/08 05:29:28;;;;;;;8.98;4.60;;;;;;;4.49;83.99;100805.41;5082945;28;20047;-85
2022/12/08 05:31:54;;;;;;;7.10;4.35;;;;;;;4.51;84.28;100805.38;5086880;28;20028;-85
2022/12/08 05:34:19;;;;;;;9.23;4.55;;;;;;;4.52;84.41;100802.75;5087561;28;20020;-85
2022/12/08 05:36:44;;;;;;;6.93;4.07;;;;;;;4.55;84.22;100807.06;5085961;28;20064;-85
2022/12/08 05:39:14;;;;;;;10.40;4.40;;;;;;;4.54;84.17;100806.19;5076537;28;20031;-85
2022/12/08 05:41:39;;;;;;;10.13;4.15;;;;;;;4.47;84.72;100787.97;5101929;28;20012;-85
2022/12/08 05:44:05;;;;;;;7.50;4.35;;;;;;;4.51;84.74;100790.53;5097350;28;20487;-85
2022/12/08 05:46:31;;;;;;;5.32;3.28;;;;;;;4.55;84.82;100802.69;5073535;28;20066;-85
2022/12/08 05:48:58;;;;;;;5.72;3.15;;;;;;;4.56;84.63;100793.94;5081683;28;20429;-86
2022/12/08 05:51:24;;;;;;;8.70;3.53;;;;;;;4.52;84.86;100787.03;5084096;28;20479;-85
2022/12/08 05:53:51;;;;;;;6.03;3.53;;;;;;;4.60;84.85;100790.38;5096732;28;20031;-85
2022/12/08 05:56:17;;;;;;;7.43;3.88;;;;;;;4.62;84.68;100790.38;5095322;28;20031;-85
2022/12/08 05:58:43;;;;;;;8.38;3.60;;;;;;;4.61;84.52;100786.84;5101384;28;20465;-85
2022/12/08 06:01:25;;;;;;;6.32;3.35;;;;;;;4.65;84.45;100785.06;5075193;28;20016;-85
2022/12/08 06:03:51;;;;;;;6.93;3.67;;;;;;;4.64;84.84;100792.94;5094474;28;20035;-85
2022/12/08 06:06:16;;;;;;;8.57;4.05;;;;;;;4.62;84.66;100785.13;5073058;28;20065;-85
2022/12/08 06:08:42;;;;;;;4.82;3.30;;;;;;;4.53;84.00;100775.66;5099386;28;20386;-85
2022/12/08 06:11:08;;;;;;;5.22;2.53;;;;;;;4.48;83.81;100769.66;5100135;28;20032;-85
2022/12/08 06:13:33;;;;;;;5.60;2.40;;;;;;;4.39;83.71;100767.19;5074092;28;20034;-85
2022/12/08 06:16:05;;;;;;;3.03;2.38;;;;;;;4.42;83.77;100782.81;5091242;28;20422;-85
2022/12/08 06:18:31;;;;;;;3.05;2.20;;;;;;;4.37;83.53;100773.31;5091990;28;20107;-85
2022/12/08 06:21:08;;;;;;;3.65;2.03;;;;;;;4.41;83.57;100782.84;5104048;28;20114;-85
2022/12/08 06:23:34;;;;;;;3.50;2.33;;;;;;;4.38;83.79;100786.38;5074967;28;20024;-85
2022/12/08 06:26:00;;;;;;;3.88;2.40;;;;;;;4.30;83.91;100772.56;5092686;28;20032;-85
2022/12/08 06:28:26;;;;;;;3.10;2.40;;;;;;;4.32;83.72;100773.38;5086815;28;20382;-85
2022/12/08 06:30:51;;;;;;;4.70;2.30;;;;;;;4.32;84.05;100765.53;5102023;28;20034;-85
2022/12/08 06:33:16;;;;;;;4.72;2.35;;;;;;;4.35;84.04;100776.81;5085102;28;20088;-85
2022/12/08 06:35:42;;;;;;;4.97;2.10;;;;;;;4.38;84.08;100769.81;5082039;28;20053;-85
2022/12/08 06:38:07;;;;;;;4.05;2.17;;;;;;;4.35;84.04;100771.59;5092560;28;20035;-85
2022/12/08 06:40:32;;;;;;;4.15;2.20;;;;;;;4.27;83.99;100767.38;5089242;28;20029;-85
2022/12/08 06:42:58;;;;;;;3.80;2.30;;;;;;;4.32;84.13;100773.38;5099743;28;20015;-85
2022/12/08 06:45:23;;;;;;;3.38;2.00;;;;;;;4.31;84.08;100777.75;5077436;28;20020;-85
2022/12/08 06:47:48;;;;;;;4.78;2.13;;;;;;;4.29;84.07;100774.31;5072528;28;20043;-85
2022/12/08 06:50:13;;;;;;;3.70;2.17;;;;;;;4.27;83.99;100775.22;5099693;28;20040;-85
2022/12/08 06:52:40;;;;;;;1.73;1.63;;;;;;;4.23;83.86;100776.16;5072940;28;20048;-85
2022/12/08 06:55:06;;;;;;;2.60;1.58;;;;;;;4.16;83.69;100767.53;5097601;28;20035;-85
2022/12/08 06:57:31;;;;;;;2.97;1.90;;;;;;;4.19;83.98;100772.69;5096642;28;20444;-85
2022/12/08 06:59:56;;;;;;;3.15;2.13;;;;;;;4.18;83.93;100767.50;5079828;28;20023;-85
2022/12/08 07:02:22;;;;;;;1.95;1.75;;;;;;;4.13;83.92;100754.50;5076773;28;20024;-85
2022/12/08 07:04:47;;;;;;;2.80;2.08;;;;;;;4.12;84.29;100768.47;5074498;28;20055;-85
2022/12/08 07:07:12;;;;;;;2.10;1.90;;;;;;;4.18;84.25;100776.22;5073177;28;20032;-85
2022/12/08 07:09:38;;;;;;;2.30;1.85;;;;;;;4.22;84.64;100774.41;5092505;28;20509;-85
2022/12/08 07:12:03;;;;;;;2.88;1.90;;;;;;;4.27;84.44;100780.44;5085890;28;20027;-84
2022/12/08 07:14:29;;;;;;;4.57;2.25;;;;;;;4.22;84.15;100774.41;5096235;28;20032;-85
2022/12/08 07:16:54;;;;;;;3.67;2.50;;;;;;;4.23;84.17;100781.38;5092806;28;20101;-84
2022/12/08 07:19:20;;;;;;;3.30;3.00;;;;;;;4.15;84.44;100778.91;5092648;28;20550;-84
2022/12/08 07:21:45;;;;;;;4.07;3.22;;;;;;;4.20;84.31;100787.53;5079794;28;20023;-85
2022/12/08 07:24:11;;;;;;;6.07;3.40;;;;;;;4.14;84.40;100773.66;5082844;28;20031;-85
2022/12/08 07:26:37;;;;;;;4.18;2.90;;;;;;;4.20;84.16;100781.44;5071157;28;20089;-85
2022/12/08 07:29:03;;;;;;;4.57;3.05;;;;;;;4.21;84.48;100783.16;5072497;28;20108;-84
2022/12/08 07:31:28;;;;;;;6.75;3.47;;;;;;;4.15;84.26;100770.16;5096005;28;20038;-85
2022/12/08 07:33:55;;;;;;;3.20;2.80;;;;;;;4.17;84.19;100771.00;5075044;28;20028;-85
2022/12/08 07:36:21;;;;;;;4.90;3.25;;;;;;;4.15;84.50;100773.66;5095149;28;20032;-85
2022/12/08 07:38:47;;;;;;;5.30;2.83;;;;;;;4.19;84.30;100777.94;5100362;28;20047;-85
2022/12/08 07:41:17;;;;;;;3.45;3.15;;;;;;;4.19;84.51;100779.69;5074567;28;20483;-84
2022/12/08 07:43:43;;;;;;;4.60;3.97;;;;;;;4.09;84.97;100761.50;5080747;28;20024;-84
2022/12/08 07:46:13;;;;;;;8.15;4.68;;;;;;;4.18;84.85;100775.34;5075930;28;20912;-84
2022/12/08 07:48:38;;;;;;;8.75;4.80;;;;;;;4.21;84.67;100768.31;5093772;28;20402;-85
2022/12/08 07:51:05;;;;;;;8.40;4.97;;;;;;;4.17;84.65;100764.03;5098856;28;20194;-85
2022/12/08 07:53:30;;;;;;;7.05;5.68;;;;;;;4.18;84.89;100770.13;5080025;28;20031;-85
2022/12/08 07:55:56;;;;;;;8.68;6.75;;;;;;;4.25;85.06;100775.25;5097685;28;20032;-85
2022/12/08 07:58:21;;;;;;;11.27;7.80;;;;;;;4.29;85.21;100781.28;5081957;28;20126;-85
2022/12/08 08:00:47;;;;;;;16.83;8.18;;;;;;;4.29;85.09;100774.31;5102236;28;20027;-85
2022/12/08 08:03:12;;;;;;;12.50;7.53;;;;;;;4.34;85.11;100782.09;5095686;28;20026;-84
2022/12/08 08:05:37;;;;;;;11.80;8.63;;;;;;;4.29;85.34;100776.94;5081481;28;20035;-85
2022/12/08 08:08:03;;;;;;;13.48;9.07;;;;;;;4.32;85.14;100770.78;5082164;28;20855;-84
2022/12/08 08:10:28;;;;;;;13.35;9.55;;;;;;;4.40;85.09;100781.13;5094189;28;20272;-85
2022/12/08 08:12:57;;;;;;;17.63;10.98;;;;;;;4.40;85.10;100779.38;5077047;28;20032;-84
2022/12/08 08:15:22;;;;;;;20.50;12.32;;;;;;;4.36;85.32;100772.44;5098721;28;20497;-84
2022/12/08 08:17:50;;;;;;;20.05;11.77;;;;;;;4.41;85.65;100783.72;5071662;28;20016;-85
2022/12/08 08:20:16;;;;;;;20.90;13.20;;;;;;;4.44;85.41;100782.81;5081787;28;20028;-85
2022/12/08 08:22:41;;;;;;;22.20;12.27;;;;;;;4.46;85.08;100779.25;5101211;28;20031;-85
2022/12/08 08:25:07;;;;;;;18.25;11.30;;;;;;;4.45;84.92;100777.53;5102343;28;20031;-85
2022/12/08 08:27:32;;;;;;;18.15;10.55;;;;;;;4.43;84.87;100781.94;5101690;28;20415;-85
2022/12/08 08:29:57;;;;;;;16.20;10.32;;;;;;;4.43;84.71;100774.09;5082285;28;20429;-85
2022/12/08 08:32:23;;;;;;;15.23;10.02;;;;;;;4.44;84.72;100778.44;5078396;28;20066;-85
2022/12/08 08:34:48;;;;;;;9.93;7.07;;;;;;;4.38;84.39;100775.91;5076000;28;20016;-85
2022/12/08 08:37:13;;;;;;;13.25;7.30;;;;;;;4.46;84.47;100778.41;5100625;28;20035;-86
2022/12/08 08:39:39;;;;;;;4.20;3.33;;;;;;;4.37;83.39;100765.47;5105765;28;20455;-86
2022/12/08 08:42:04;;;;;;;5.13;3.30;;;;;;;4.38;83.33;100777.66;5104903;28;20383;-86
2022/12/08 08:44:29;;;;;;;3.90;2.70;;;;;;;4.32;83.25;100776.88;5098326;28;20114;-86
2022/12/08 08:46:54;;;;;;;4.85;2.78;;;;;;;4.32;83.75;100769.00;5083678;28;20066;-85
2022/12/08 08:49:20;;;;;;;4.18;2.67;;;;;;;4.34;83.66;100774.25;5107034;28;20134;-86
2022/12/08 08:51:46;;;;;;;4.07;2.70;;;;;;;4.37;83.80;100781.16;5081713;28;20032;-86
2022/12/08 08:54:11;;;;;;;3.05;2.30;;;;;;;4.32;83.61;100770.78;5095759;28;20032;-85
2022/12/08 08:56:36;;;;;;;4.40;2.85;;;;;;;4.33;83.50;100775.09;5093859;28;20467;-86
2022/12/08 08:59:02;;;;;;;3.13;2.00;;;;;;;4.33;83.30;100782.97;5075113;28;20028;-85
2022/12/08 09:01:28;;;;;;;2.30;1.90;;;;;;;4.30;83.29;100783.03;5082029;28;20051;-85
2022/12/08 09:03:54;;;;;;;1.90;1.63;;;;;;;4.29;83.03;100778.66;5098832;28;20020;-86
2022/12/08 09:06:21;;;;;;;1.98;1.88;;;;;;;4.35;83.34;100781.19;5092582;28;20547;-85
2022/12/08 09:08:47;;;;;;;4.90;2.10;;;;;;;4.32;83.26;100776.88;5084021;28;20019;-86
2022/12/08 09:11:12;;;;;;;2.83;2.30;;;;;;;4.37;83.36;100778.53;5088657;28;20032;-86
2022/12/08 09:13:38;;;;;;;3.35;1.85;;;;;;;4.34;82.82;100769.00;5079506;28;20086;-86
2022/12/08 09:16:05;;;;;;;4.53;2.15;;;;;;;4.40;82.94;100778.50;5092249;28;20527;-86
2022/12/08 09:18:31;;;;;;;2.70;1.95;;;;;;;4.45;82.82;100774.06;5091324;28;20404;-85
2022/12/08 09:21:07;;;;;;;3.67;2.38;;;;;;;4.51;82.95;100764.34;5088793;28;20027;-86
2022/12/08 09:23:32;;;;;;;3.63;2.45;;;;;;;4.50;83.02;100772.22;5103006;28;20023;-86
2022/12/08 09:25:57;;;;;;;2.33;2.13;;;;;;;4.51;82.67;100763.47;5096398;28;20028;-86
2022/12/08 09:28:22;;;;;;;3.55;2.30;;;;;;;4.46;82.93;100753.09;5102148;28;20491;-86
2022/12/08 09:30:50;;;;;;;5.05;2.80;;;;;;;4.49;82.94;100749.56;5081526;28;20067;-86
2022/12/08 09:33:15;;;;;;;4.43;2.80;;;;;;;4.65;83.18;100765.88;5080836;28;20058;-86
2022/12/08 09:35:40;;;;;;;6.38;3.28;;;;;;;4.74;83.24;100765.72;5075560;28;20069;-86
2022/12/08 09:38:06;;;;;;;5.93;3.78;;;;;;;4.80;83.17;100773.44;5082814;28;20466;-86
2022/12/08 09:40:39;;;;;;;4.85;3.70;;;;;;;4.85;82.70;100754.16;5103135;28;20032;-87
2022/12/08 09:43:23;;;;;;;8.00;3.85;;;;;;;4.84;82.83;100770.75;5073643;28;20161;-86
2022/12/08 09:45:50;;;;;;;7.75;4.40;;;;;;;4.77;82.81;100761.28;5101990;28;20028;-83
2022/12/08 09:48:23;;;;;;;6.03;4.25;;;;;;;4.82;83.17;100764.69;5100595;28;20032;-83
2022/12/08 09:50:56;;;;;;;7.18;4.85;;;;;;;4.76;83.04;100759.56;5097041;28;20533;-83
2022/12/08 09:53:27;;;;;;;10.50;5.50;;;;;;;4.79;83.37;100771.72;5101798;28;20032;-84
2022/12/08 09:55:57;;;;;;;5.90;4.35;;;;;;;4.83;83.66;100770.78;5095143;28;20094;-83
2022/12/08 09:58:57;;;;;;;6.82;4.00;;;;;;;4.90;82.99;100768.94;5081874;28;20038;-83
2022/12/08 10:01:27;;;;;;;6.38;4.03;;;;;;;4.90;82.64;100759.31;5081375;28;20283;-83
2022/12/08 10:03:54;;;;;;;6.45;4.32;;;;;;;4.89;82.33;100761.94;5092032;28;20016;-83
2022/12/08 10:06:46;;;;;;;10.20;4.80;;;;;;;4.94;82.94;100767.97;5087906;28;20024;-84
2022/12/08 10:09:27;;;;;;;8.20;5.47;;;;;;;4.94;82.88;100750.50;5081445;28;20423;-83
2022/12/08 10:11:55;;;;;;;7.60;5.20;;;;;;;4.87;83.01;100746.28;5098101;28;20386;-84
2022/12/08 10:14:35;;;;;;;11.30;6.28;;;;;;;4.94;82.97;100754.88;5095262;28;20028;-84
2022/12/08 10:17:09;;;;;;;10.98;7.60;;;;;;;4.90;83.08;100759.31;5095165;28;20475;-84
2022/12/08 10:19:35;;;;;;;17.02;9.88;;;;;;;4.90;83.21;100756.72;5100876;28;20495;-84
2022/12/08 10:22:13;;;;;;;21.63;11.50;;;;;;;4.89;83.67;100752.34;5083248;28;20554;-83
2022/12/08 10:24:52;;;;;;;24.00;14.43;;;;;;;4.80;83.53;100742.91;5100486;28;20026;-83
2022/12/08 10:27:17;;;;;;;24.33;13.93;;;;;;;4.89;83.67;100749.72;5098028;28;20534;-83
2022/12/08 10:29:42;;;;;;;28.40;15.90;;;;;;;4.86;83.38;100741.94;5078469;28;20275;-83
2022/12/08 10:32:32;;;;;;;34.63;17.98;;;;;;;4.81;83.47;100742.03;5081217;28;20051;-83
2022/12/08 10:35:09;;;;;;;36.75;18.83;;;;;;;4.89;83.58;100749.72;5077348;28;20498;-84
2022/12/08 10:37:35;;;;;;;36.47;19.45;;;;;;;4.89;83.61;100749.72;5083783;28;20027;-83
2022/12/08 10:40:11;;;;;;;40.08;20.05;;;;;;;4.90;83.25;100738.38;5085672;28;20203;-83
2022/12/08 10:42:41;;;;;;;38.65;20.33;;;;;;;4.93;83.58;100738.28;5097789;28;20145;-83
2022/12/08 10:45:32;;;;;;;38.22;18.80;;;;;;;4.98;82.86;100744.31;5097789;28;20136;-83
2022/12/08 10:48:01;;;;;;;39.15;18.80;;;;;;;4.86;83.43;100736.69;5097196;28;20039;-84
2022/12/08 10:50:32;;;;;;;37.10;20.25;;;;;;;4.92;83.65;100744.44;5085340;28;20705;-83
2022/12/08 10:53:11;;;;;;;35.40;17.67;;;;;;;4.93;83.30;100740.91;5089839;28;20021;-84
2022/12/08 10:55:45;;;;;;;35.42;19.40;;;;;;;4.91;83.20;100737.47;5102371;28;20070;-83
2022/12/08 10:58:34;;;;;;;37.22;20.58;;;;;;;4.91;83.60;100734.00;5092238;28;20495;-83
2022/12/08 11:01:17;;;;;;;30.45;15.93;;;;;;;4.88;83.15;100742.75;5098081;28;20020;-84
2022/12/08 11:03:51;;;;;;;35.30;16.45;;;;;;;4.85;83.60;100727.13;5092087;28;20077;-83
2022/12/08 11:06:22;;;;;;;26.23;14.95;;;;;;;4.91;83.45;100720.91;5099560;28;20035;-83
2022/12/08 11:09:16;;;;;;;27.70;13.77;;;;;;;4.98;82.82;100728.59;5096593;28;20027;-83
2022/12/08 11:12:14;;;;;;;26.20;14.25;;;;;;;5.01;83.22;100725.91;5075339;28;20415;-84
2022/12/08 11:14:42;;;;;;;28.50;14.43;;;;;;;5.00;83.03;100724.19;5073690;28;20031;-83
2022/12/08 11:17:23;;;;;;;18.38;11.48;;;;;;;4.98;82.42;100719.88;5073915;28;20027;-84
2022/12/08 11:19:58;;;;;;;10.88;6.53;;;;;;;4.93;81.16;100725.19;5076870;28;20019;-84
2022/12/08 11:22:31;;;;;;;17.20;9.68;;;;;;;4.92;81.56;100720.84;5084049;28;20028;-84
2022/12/08 11:25:06;;;;;;;16.45;9.52;;;;;;;4.92;81.98;100715.63;5102571;28;20019;-83
2022/12/08 11:27:33;;;;;;;19.83;10.90;;;;;;;4.91;82.71;100719.13;5083788;28;20031;-84
2022/12/08 11:30:00;;;;;;;17.48;9.88;;;;;;;4.96;81.82;100716.44;5090718;28;20054;-84
2022/12/08 11:32:26;;;;;;;17.63;10.38;;;;;;;4.95;81.96;100707.72;5088362;28;20085;-83
2022/12/08 11:35:02;;;;;;;16.50;9.77;;;;;;;4.91;81.97;100699.94;5103024;28;20433;-84
2022/12/08 11:37:34;;;;;;;17.00;10.80;;;;;;;4.74;82.29;100689.78;5099047;28;20028;-83
2022/12/08 11:40:02;;;;;;;;;;;;;;;4.93;81.97;100701.63;5076737;28;20110;-83